Time;durP1;ratioP1;P1;durP2;ratioP2;P2;SDS_P1;SDS_P2;PMS_P1;PMS_P2;Temp;Humidity;BMP_temperature;BMP_pressure;BME280_temperature;BME280_humidity;BME280_pressure;Samples;Min_cycle;Max_cycle;Signal;HPM_P1;HPM_P2
2023/01/14 00:00:14;;;;;;;20.77;12.75;;;;;;;6.97;100.00;100605.66;5032874;28;20654;-74
2023/01/14 00:02:39;;;;;;;20.60;13.20;;;;;;;6.24;100.00;100530.91;5032571;28;20036;-74
2023/01/14 00:05:05;;;;;;;25.48;16.10;;;;;;;6.94;100.00;100627.56;5032533;28;20034;-75
2023/01/14 00:07:30;;;;;;;31.23;17.13;;;;;;;6.44;100.00;100536.75;5032676;28;20041;-74
2023/01/14 00:09:56;;;;;;;34.35;20.63;;;;;;;6.61;100.00;100594.81;5038092;28;20480;-74
2023/01/14 00:12:21;;;;;;;30.10;19.23;;;;;;;6.91;100.00;100620.84;5052272;28;20119;-74
2023/01/14 00:14:47;;;;;;;32.85;19.70;;;;;;;6.44;100.00;100566.25;5050931;28;20063;-75
2023/01/14 00:17:12;;;;;;;43.17;24.55;;;;;;;6.48;100.00;100548.53;5051951;28;20029;-74
2023/01/14 00:19:38;;;;;;;34.95;19.38;;;;;;;6.31;100.00;100522.50;5050754;28;20578;-74
2023/01/14 00:22:04;;;;;;;31.73;17.45;;;;;;;6.40;100.00;100562.03;5051140;28;20087;-74
2023/01/14 00:24:30;;;;;;;26.58;14.80;;;;;;;6.51;100.00;100562.84;5050967;28;20036;-74
2023/01/14 00:26:57;;;;;;;28.13;14.85;;;;;;;6.32;100.00;100546.88;5051676;28;20032;-75
2023/01/14 00:29:31;;;;;;;20.92;12.18;;;;;;;6.94;100.00;100617.47;5051805;28;20052;-74
2023/01/14 00:31:59;;;;;;;23.70;12.00;;;;;;;6.28;100.00;100525.00;5052051;28;20109;-74
2023/01/14 00:34:27;;;;;;;20.85;11.38;;;;;;;6.49;100.00;100544.34;5052929;28;20067;-74
2023/01/14 00:36:53;;;;;;;22.73;12.50;;;;;;;6.79;100.00;100620.88;5051327;28;20120;-74
2023/01/14 00:39:18;;;;;;;23.65;12.43;;;;;;;6.09;100.00;100485.50;5050976;28;20112;-74
2023/01/14 00:41:44;;;;;;;24.30;12.85;;;;;;;6.72;100.00;100626.78;5052090;28;20025;-75
2023/01/14 00:44:10;;;;;;;29.65;13.02;;;;;;;6.36;100.00;100551.09;5050489;28;20106;-74
2023/01/14 00:46:38;;;;;;;30.40;13.45;;;;;;;6.75;100.00;100623.44;5051597;28;20423;-74
2023/01/14 00:49:06;;;;;;;27.00;12.70;;;;;;;6.91;100.00;100615.78;5051471;28;20044;-74
2023/01/14 00:51:32;;;;;;;31.67;14.40;;;;;;;6.56;100.00;100541.78;5051127;28;20503;-73
2023/01/14 00:53:59;;;;;;;31.05;15.63;;;;;;;6.75;100.00;100591.44;5050755;28;20032;-74
2023/01/14 00:56:25;;;;;;;31.17;15.75;;;;;;;6.57;100.00;100570.41;5051501;28;20033;-74
2023/01/14 00:58:50;;;;;;;29.38;16.40;;;;;;;6.79;100.00;100620.06;5050375;28;21024;-74
2023/01/14 01:01:16;;;;;;;30.20;18.40;;;;;;;6.46;100.00;100530.03;5051115;28;20456;-73
2023/01/14 01:03:48;;;;;;;29.92;18.45;;;;;;;6.56;100.00;100554.41;5051292;28;20186;-74
2023/01/14 01:06:15;;;;;;;29.00;18.25;;;;;;;6.76;100.00;100615.84;5050221;28;20033;-74
2023/01/14 01:08:41;;;;;;;28.55;17.92;;;;;;;6.31;100.00;100517.44;5049991;28;20473;-74
2023/01/14 01:11:07;;;;;;;26.30;17.25;;;;;;;6.86;100.00;100614.97;5051014;28;20032;-74
2023/01/14 01:13:35;;;;;;;30.38;19.27;;;;;;;6.78;100.00;100590.56;5051046;28;20025;-73
2023/01/14 01:16:04;;;;;;;28.23;18.98;;;;;;;6.53;100.00;100556.97;5050132;28;20504;-76
2023/01/14 01:18:30;;;;;;;29.35;18.67;;;;;;;6.96;100.00;100608.19;5051232;28;20064;-75
2023/01/14 01:21:02;;;;;;;31.73;20.10;;;;;;;6.91;100.00;100612.44;5050396;28;20021;-76
2023/01/14 01:23:27;;;;;;;29.73;18.48;;;;;;;6.54;100.00;100545.16;5051807;28;20029;-76
2023/01/14 01:26:03;;;;;;;32.13;18.52;;;;;;;6.70;100.00;100610.78;5050717;28;20055;-76
2023/01/14 01:28:30;;;;;;;30.00;17.30;;;;;;;6.91;100.00;100595.56;5051018;28;20087;-76
2023/01/14 01:31:07;;;;;;;33.17;18.58;;;;;;;6.81;100.00;100624.22;5051925;28;20132;-76
2023/01/14 01:33:33;;;;;;;38.30;18.27;;;;;;;6.55;100.00;100567.91;5051141;28;20517;-75
2023/01/14 01:36:23;;;;;;;38.08;16.27;;;;;;;6.80;100.00;100611.59;5051518;28;20033;-75
2023/01/14 01:38:50;;;;;;;35.45;17.05;;;;;;;6.81;100.00;100621.69;5051807;28;20083;-76
2023/01/14 01:41:18;;;;;;;37.50;17.00;;;;;;;6.36;100.00;100540.97;5051563;28;20052;-75
2023/01/14 01:44:07;;;;;;;45.83;18.15;;;;;;;6.80;100.00;100617.50;5051613;28;20033;-75
2023/01/14 01:46:34;;;;;;;45.55;17.88;;;;;;;6.45;100.00;100557.81;5050239;28;20036;-75
2023/01/14 01:49:21;;;;;;;38.88;17.52;;;;;;;6.79;100.00;100620.88;5051901;28;20476;-75
2023/01/14 01:51:54;;;;;;;40.72;19.00;;;;;;;6.77;100.00;100607.41;5051523;28;20029;-75
2023/01/14 01:54:24;;;;;;;48.63;20.65;;;;;;;6.53;100.00;100579.69;5051111;28;20037;-74
2023/01/14 01:56:50;;;;;;;43.83;19.88;;;;;;;6.64;100.00;100597.31;5051616;28;20057;-75
2023/01/14 01:59:21;;;;;;;41.15;19.60;;;;;;;6.51;100.00;100580.53;5051819;28;20039;-76
2023/01/14 02:01:47;;;;;;;40.77;19.23;;;;;;;6.50;100.00;100587.25;5051115;28;20104;-75
2023/01/14 02:04:13;;;;;;;40.13;19.85;;;;;;;6.45;100.00;100565.38;5051421;28;20045;-76
2023/01/14 02:06:39;;;;;;;40.78;18.90;;;;;;;6.64;100.00;100593.13;5054592;28;20484;-75
2023/01/14 02:09:05;;;;;;;33.85;18.08;;;;;;;6.70;100.00;100597.31;5054755;28;20083;-76
2023/01/14 02:11:39;;;;;;;36.15;18.13;;;;;;;6.59;100.00;100568.72;5054621;28;20078;-75
2023/01/14 02:14:41;;;;;;;42.75;21.30;;;;;;;6.57;100.00;100591.47;5055050;28;20068;-76
2023/01/14 02:17:12;;;;;;;43.13;19.75;;;;;;;6.79;100.00;100587.19;5054897;28;20055;-75
2023/01/14 02:20:18;;;;;;;39.55;20.38;;;;;;;6.78;100.00;100583.81;5054844;28;20083;-75
2023/01/14 02:23:01;;;;;;;39.67;19.38;;;;;;;6.80;100.00;100578.75;5055039;28;20054;-75
2023/01/14 02:25:45;;;;;;;52.58;22.25;;;;;;;6.70;100.00;100575.44;5055012;28;20123;-75
2023/01/14 02:28:29;;;;;;;49.38;21.17;;;;;;;6.71;100.00;100573.75;5054851;28;20120;-73
2023/01/14 02:31:25;;;;;;;50.25;23.13;;;;;;;6.32;100.00;100498.09;5054701;28;20057;-75
2023/01/14 02:34:17;;;;;;;56.08;22.75;;;;;;;6.56;100.00;100578.81;5054657;28;20032;-74
2023/01/14 02:36:52;;;;;;;42.78;16.02;;;;;;;6.46;100.00;100575.47;5054392;28;20039;-74
2023/01/14 02:39:24;;;;;;;48.28;20.83;;;;;;;6.20;100.00;100520.84;5054782;28;20029;-75
2023/01/14 02:44:56;;;;;;;52.55;21.83;;;;;;;6.57;100.00;100580.50;5053786;28;20032;-74
2023/01/14 02:47:26;;;;;;;;;;;;;;;6.72;100.00;100581.31;5053014;28;20476;-74
2023/01/14 02:49:54;;;;;;;51.88;20.17;;;;;;;6.10;100.00;100487.22;5053805;28;19913;-74
2023/01/14 02:52:20;;;;;;;52.17;20.30;;;;;;;6.68;100.00;100576.28;5052746;28;20021;-74
2023/01/14 02:54:56;;;;;;;51.85;20.77;;;;;;;6.05;100.00;100504.88;5053971;28;20384;-74
2023/01/14 02:57:35;;;;;;;67.38;22.00;;;;;;;6.62;100.00;100577.13;5054107;28;20037;-75
2023/01/14 03:00:21;;;;;;;50.22;19.48;;;;;;;6.50;100.00;100531.69;5054122;28;20036;-74
2023/01/14 03:02:55;;;;;;;60.15;21.27;;;;;;;6.65;100.00;100584.72;5053369;28;20052;-75
2023/01/14 03:05:25;;;;;;;62.45;21.38;;;;;;;6.61;100.00;100585.56;5052922;28;20075;-76
2023/01/14 03:08:08;;;;;;;58.33;21.13;;;;;;;6.60;100.00;100570.41;5054447;28;20052;-75
2023/01/14 03:10:40;;;;;;;60.47;21.77;;;;;;;6.40;100.00;100541.84;5053337;28;20195;-77
2023/01/14 03:13:28;;;;;;;71.30;22.10;;;;;;;6.66;100.00;100578.81;5052726;28;20033;-75
2023/01/14 03:16:01;;;;;;;63.42;22.35;;;;;;;6.11;100.00;100509.91;5052051;28;20033;-75
2023/01/14 03:18:29;;;;;;;62.78;22.48;;;;;;;6.67;100.00;100575.44;5053346;28;20060;-76
2023/01/14 03:21:02;;;;;;;67.75;22.85;;;;;;;5.86;100.00;100437.59;5054368;28;20033;-76
2023/01/14 03:23:33;;;;;;;64.43;23.40;;;;;;;6.13;100.00;100498.13;5053626;28;20126;-77
2023/01/14 03:26:01;;;;;;;69.13;23.20;;;;;;;6.07;100.00;100479.63;5053974;28;20036;-76
2023/01/14 03:28:37;;;;;;;62.80;23.70;;;;;;;6.22;100.00;100512.41;5053884;28;20033;-76
2023/01/14 03:31:08;;;;;;;65.47;22.27;;;;;;;6.19;100.00;100473.72;5053523;28;20079;-76
2023/01/14 03:33:40;;;;;;;63.72;24.55;;;;;;;6.48;100.00;100524.97;5053914;28;20033;-75
2023/01/14 03:36:07;;;;;;;50.38;19.98;;;;;;;6.37;100.00;100564.56;5053969;28;20037;-76
2023/01/14 03:38:39;;;;;;;40.92;16.90;;;;;;;6.40;100.00;100537.59;5053541;28;20403;-76
2023/01/14 03:41:06;;;;;;;;;;;;;;;6.54;100.00;100562.81;5054189;28;20033;-76
2023/01/14 03:43:46;;;;;;;36.25;14.90;;;;;;;6.42;100.00;100561.19;5053967;28;19970;-76
2023/01/14 03:46:11;;;;;;;25.85;13.57;;;;;;;6.54;100.00;100573.78;5054270;28;20033;-75
2023/01/14 03:48:37;;;;;;;24.60;12.63;;;;;;;6.48;100.00;100553.59;5053710;28;20056;-77
2023/01/14 03:51:15;;;;;;;24.52;13.05;;;;;;;6.49;100.00;100562.00;5053730;28;20068;-76
2023/01/14 03:54:21;;;;;;;19.73;10.57;;;;;;;6.41;100.00;100571.28;5053437;28;20056;-76
2023/01/14 03:57:28;;;;;;;19.35;11.05;;;;;;;6.48;100.00;100557.78;5053873;28;20178;-75
2023/01/14 04:00:02;;;;;;;19.60;10.43;;;;;;;6.35;100.00;100539.31;5042403;28;20067;-76
2023/01/14 04:02:30;;;;;;;17.13;10.90;;;;;;;6.09;100.00;100510.75;5052789;28;20033;-75
2023/01/14 04:04:56;;;;;;;20.20;11.88;;;;;;;5.46;100.00;100437.63;5051668;28;20045;-75
2023/01/14 04:07:24;;;;;;;24.02;12.80;;;;;;;5.81;100.00;100483.81;5053269;28;20204;-76
2023/01/14 04:09:49;;;;;;;21.15;12.90;;;;;;;6.29;100.00;100562.06;5052940;28;20067;-74
2023/01/14 04:12:15;;;;;;;21.27;13.77;;;;;;;5.98;100.00;100494.78;5052522;28;20167;-75
2023/01/14 04:17:25;;;;;;;18.98;11.50;;;;;;;5.94;100.00;100525.91;5052359;28;20032;-75
2023/01/14 04:19:50;;;;;;;26.58;15.55;;;;;;;6.43;100.00;100565.41;5052372;28;20021;-75
2023/01/14 04:22:16;;;;;;;24.80;15.02;;;;;;;6.29;100.00;100578.88;5052081;28;20479;-74
2023/01/14 04:24:41;;;;;;;23.17;14.77;;;;;;;6.46;100.00;100584.72;5050783;28;20036;-74
2023/01/14 04:27:07;;;;;;;40.42;29.23;;;;;;;6.29;100.00;100574.66;5052364;28;20029;-74
2023/01/14 04:29:32;;;;;;;33.13;21.20;;;;;;;6.36;100.00;100581.38;5051765;28;20491;-75
2023/01/14 04:31:57;;;;;;;22.98;14.13;;;;;;;5.94;100.00;100510.78;5052506;28;20029;-73
2023/01/14 04:34:23;;;;;;;21.70;14.50;;;;;;;6.45;100.00;100585.59;5050924;28;20119;-74
2023/01/14 04:36:48;;;;;;;21.35;13.48;;;;;;;6.36;100.00;100576.34;5052290;28;20031;-76
2023/01/14 04:39:14;;;;;;;26.98;14.85;;;;;;;5.75;100.00;100493.91;5052005;28;20033;-75
2023/01/14 04:44:31;;;;;;;23.15;13.40;;;;;;;5.97;100.00;100508.25;5051327;28;20482;-75
2023/01/14 04:46:56;;;;;;;36.22;19.45;;;;;;;6.29;100.00;100584.78;5051925;28;20040;-75
2023/01/14 04:49:22;;;;;;;40.03;22.08;;;;;;;6.33;100.00;100583.06;5051710;28;20029;-75
2023/01/14 04:51:47;;;;;;;34.10;16.45;;;;;;;6.38;100.00;100592.31;5051915;28;20028;-74
2023/01/14 04:54:13;;;;;;;31.85;15.35;;;;;;;5.99;100.00;100506.56;5052192;28;20032;-76
2023/01/14 04:56:38;;;;;;;32.40;16.40;;;;;;;5.93;100.00;100501.50;5052611;28;20040;-75
2023/01/14 04:59:03;;;;;;;21.25;11.15;;;;;;;7.59;100.00;100548.88;5050500;28;20124;-73
2023/01/14 05:01:30;;;;;;;30.27;14.63;;;;;;;7.07;100.00;100595.53;5051752;28;20086;-70
2023/01/14 05:03:58;;;;;;;27.02;13.88;;;;;;;6.54;100.00;100606.63;5051457;28;20056;-72
2023/01/14 05:06:25;;;;;;;24.85;14.10;;;;;;;6.39;100.00;100553.63;5051275;28;20135;-73
2023/01/14 05:08:51;;;;;;;24.55;14.18;;;;;;;6.35;100.00;100607.50;5051397;28;20044;-73
2023/01/14 05:11:16;;;;;;;21.27;13.65;;;;;;;6.02;100.00;100501.53;5051585;28;20033;-73
2023/01/14 05:13:42;;;;;;;20.58;12.82;;;;;;;6.65;100.00;100615.03;5049613;28;20029;-73
2023/01/14 05:16:07;;;;;;;19.90;12.25;;;;;;;6.63;100.00;100555.25;5049675;28;20074;-73
2023/01/14 05:18:32;;;;;;;26.70;15.88;;;;;;;6.49;100.00;100549.38;5049876;28;20029;-71
2023/01/14 05:20:58;;;;;;;28.88;18.80;;;;;;;6.92;100.00;100544.19;5051072;28;20500;-72
2023/01/14 05:23:23;;;;;;;28.90;17.10;;;;;;;7.49;100.00;100625.66;5050648;28;20071;-74
2023/01/14 05:25:50;;;;;;;23.88;15.30;;;;;;;7.56;100.00;100547.22;5050791;28;20033;-73
2023/01/14 05:28:17;;;;;;;23.25;15.02;;;;;;;6.72;100.00;100623.41;5050185;28;20134;-74
2023/01/14 05:30:43;;;;;;;21.77;14.57;;;;;;;6.75;100.00;100626.81;5052024;28;20040;-73
2023/01/14 05:33:08;;;;;;;22.48;14.98;;;;;;;6.43;100.00;100582.22;5051948;28;20033;-74
2023/01/14 05:35:34;;;;;;;21.83;14.60;;;;;;;6.65;100.00;100559.47;5052049;28;20041;-74
2023/01/14 05:38:00;;;;;;;20.63;15.23;;;;;;;6.20;100.00;100574.66;5050966;28;20064;-75
2023/01/14 05:40:25;;;;;;;19.15;13.10;;;;;;;6.19;100.00;100620.09;5053049;28;20056;-74
2023/01/14 05:45:37;;;;;;;17.75;12.75;;;;;;;6.61;100.00;100630.19;5035034;28;20086;-74
2023/01/14 05:48:04;;;;;;;20.23;14.38;;;;;;;5.73;100.00;100543.53;5036457;28;20507;-74
2023/01/14 05:50:30;;;;;;;19.27;13.82;;;;;;;5.80;100.00;100575.50;5052582;28;20067;-74
2023/01/14 05:52:55;;;;;;;20.52;14.70;;;;;;;6.23;100.00;100642.84;5053811;28;20124;-73
2023/01/14 05:55:20;;;;;;;22.08;14.52;;;;;;;5.85;100.00;100572.16;5054936;28;20028;-73
2023/01/14 05:57:46;;;;;;;22.70;15.15;;;;;;;5.46;100.00;100498.97;5055036;28;20033;-74
2023/01/14 06:06:20;;;;;;;23.17;15.57;;;;;;;5.72;100.00;100557.84;5054270;28;20024;-73
2023/01/14 06:08:06;;;;;;;21.60;14.88;;;;;;;5.77;100.00;100580.50;5053931;28;20037;-74
2023/01/14 06:10:36;;;;;;;20.75;14.48;;;;;;;5.49;100.00;100569.53;5054262;28;20032;-74
2023/01/14 06:13:06;;;;;;;24.73;15.32;;;;;;;5.67;100.00;100604.88;5053618;28;20544;-75
2023/01/14 06:15:36;;;;;;;21.30;15.30;;;;;;;5.53;100.00;100593.09;5053043;28;20055;-74
2023/01/14 06:18:14;;;;;;;23.30;15.85;;;;;;;6.02;100.00;100630.22;5053748;28;20056;-76
2023/01/14 06:20:43;;;;;;;24.13;17.23;;;;;;;5.50;100.00;100583.84;5052937;28;20423;-73
2023/01/14 06:23:08;;;;;;;28.48;18.75;;;;;;;5.51;100.00;100599.81;5054464;28;20091;-74
2023/01/14 06:25:34;;;;;;;24.60;17.88;;;;;;;5.74;100.00;100636.03;5054609;28;20033;-74
2023/01/14 06:28:00;;;;;;;28.63;20.20;;;;;;;5.70;100.00;100662.06;5054662;28;20056;-73
2023/01/14 06:30:28;;;;;;;30.63;20.58;;;;;;;5.63;100.00;100652.78;5054563;28;20033;-74
2023/01/14 06:32:55;;;;;;;30.70;20.58;;;;;;;5.21;100.00;100591.31;5054381;28;20044;-74
2023/01/14 06:35:22;;;;;;;28.98;19.48;;;;;;;5.14;100.00;100573.66;5054114;28;20076;-73
2023/01/14 06:37:47;;;;;;;30.67;21.40;;;;;;;5.57;100.00;100647.72;5054084;28;20151;-73
2023/01/14 06:40:13;;;;;;;33.67;21.75;;;;;;;5.11;100.00;100559.38;5053197;28;20041;-73
2023/01/14 06:42:40;;;;;;;29.73;21.13;;;;;;;5.74;100.00;100646.09;5054053;28;20060;-74
2023/01/14 06:45:07;;;;;;;27.95;19.42;;;;;;;5.73;100.00;100646.94;5052955;28;20052;-74
2023/01/14 06:47:32;;;;;;;28.65;18.77;;;;;;;5.62;100.00;100657.00;5052198;28;20514;-73
2023/01/14 06:49:58;;;;;;;26.10;18.23;;;;;;;5.47;100.00;100646.03;5052692;28;20041;-76
2023/01/14 06:52:23;;;;;;;31.27;18.92;;;;;;;5.55;100.00;100626.72;5052137;28;20032;-76
2023/01/14 06:54:51;;;;;;;31.20;18.67;;;;;;;5.71;100.00;100638.50;5054190;28;20037;-75
2023/01/14 06:57:16;;;;;;;30.83;18.48;;;;;;;5.26;100.00;100606.47;5053960;28;20408;-75
2023/01/14 06:59:41;;;;;;;30.77;18.80;;;;;;;5.65;100.00;100653.63;5052672;28;20036;-76
2023/01/14 07:02:10;;;;;;;37.00;20.90;;;;;;;5.03;100.00;100567.75;5052978;28;20121;-78
2023/01/14 07:04:36;;;;;;;38.55;21.02;;;;;;;5.13;100.00;100560.22;5054109;28;20041;-75
2023/01/14 07:07:01;;;;;;;38.95;23.05;;;;;;;5.28;100.00;100567.84;5053483;28;20483;-74
2023/01/14 07:09:27;;;;;;;41.53;23.70;;;;;;;5.51;100.00;100619.97;5054283;28;20036;-75
2023/01/14 07:11:52;;;;;;;43.95;22.95;;;;;;;5.74;100.00;100657.06;5053996;28;20040;-77
2023/01/14 07:14:17;;;;;;;40.42;22.75;;;;;;;5.33;100.00;100514.06;5053282;28;20079;-74
2023/01/14 07:16:43;;;;;;;39.67;22.48;;;;;;;5.41;100.00;100581.28;5054086;28;20025;-77
2023/01/14 07:19:09;;;;;;;42.17;21.02;;;;;;;5.90;100.00;100657.94;5053194;28;20025;-77
2023/01/14 07:21:35;;;;;;;42.63;22.13;;;;;;;5.69;100.00;100658.69;5053973;28;20017;-74
2023/01/14 07:24:00;;;;;;;55.15;25.48;;;;;;;6.50;100.00;100650.41;5053802;28;20043;-76
2023/01/14 07:26:25;;;;;;;52.30;24.60;;;;;;;5.23;100.00;100589.66;5052954;28;20168;-74
2023/01/14 07:28:51;;;;;;;56.22;29.70;;;;;;;5.36;100.00;100597.25;5051821;28;20132;-72
2023/01/14 07:31:16;;;;;;;51.22;23.25;;;;;;;6.67;100.00;100663.88;5053128;28;20043;-76
2023/01/14 07:33:42;;;;;;;66.50;25.77;;;;;;;6.20;100.00;100574.66;5053814;28;20033;-77
2023/01/14 07:36:07;;;;;;;56.33;25.75;;;;;;;5.21;100.00;100538.41;5053431;28;20475;-76
2023/01/14 07:38:33;;;;;;;61.95;25.30;;;;;;;5.74;100.00;100661.25;5048735;28;20068;-74
2023/01/14 07:40:59;;;;;;;67.28;26.63;;;;;;;5.23;100.00;100576.19;5034957;28;20083;-75
2023/01/14 07:43:24;;;;;;;59.75;24.98;;;;;;;5.78;100.00;100675.53;5031852;28;20499;-77
2023/01/14 07:45:50;;;;;;;64.43;25.63;;;;;;;5.59;100.00;100653.63;5032615;28;20087;-74
2023/01/14 07:48:16;;;;;;;67.78;29.20;;;;;;;5.81;100.00;100667.97;5032298;28;20034;-74
2023/01/14 07:50:41;;;;;;;61.78;26.02;;;;;;;5.58;100.00;100660.38;5032770;28;20028;-75
2023/01/14 07:53:06;;;;;;;65.15;29.40;;;;;;;6.47;100.00;100659.66;5036686;28;20102;-75
2023/01/14 07:55:34;;;;;;;64.63;28.60;;;;;;;5.77;100.00;100666.28;5043442;28;20029;-72
2023/01/14 07:57:59;;;;;;;61.58;26.40;;;;;;;5.84;100.00;100683.16;5037066;28;20067;-71
2023/01/14 08:00:25;;;;;;;58.03;25.08;;;;;;;5.58;100.00;100680.53;5030474;28;20538;-73
2023/01/14 08:02:51;;;;;;;58.80;26.90;;;;;;;5.06;100.00;100533.31;5032697;28;20102;-72
2023/01/14 08:05:16;;;;;;;61.17;29.40;;;;;;;5.51;100.00;100584.66;5049429;28;20399;-70
2023/01/14 08:07:42;;;;;;;59.85;29.83;;;;;;;5.91;100.00;100678.13;5046646;28;20032;-73
2023/01/14 08:10:09;;;;;;;65.88;29.13;;;;;;;6.00;100.00;100670.56;5050241;28;20031;-72
2023/01/14 08:12:34;;;;;;;59.25;28.13;;;;;;;5.29;100.00;100553.53;5051714;28;20036;-73
2023/01/14 08:15:02;;;;;;;56.70;26.55;;;;;;;6.06;100.00;100697.50;5051795;28;20033;-72
2023/01/14 08:17:28;;;;;;;57.20;25.70;;;;;;;5.98;100.00;100684.03;5051436;28;20040;-73
2023/01/14 08:19:53;;;;;;;51.53;23.60;;;;;;;5.88;100.00;100710.09;5050168;28;20029;-70
2023/01/14 08:22:18;;;;;;;53.88;25.23;;;;;;;5.78;100.00;100678.06;5050563;28;20033;-71
2023/01/14 08:24:44;;;;;;;60.33;27.13;;;;;;;5.59;100.00;100624.22;5050495;28;20029;-71
2023/01/14 08:27:09;;;;;;;62.15;29.08;;;;;;;5.98;100.00;100691.59;5050429;28;20040;-73
2023/01/14 08:29:35;;;;;;;52.88;26.25;;;;;;;5.41;100.00;100610.72;5050593;28;20107;-73
2023/01/14 08:32:00;;;;;;;53.13;25.95;;;;;;;5.92;100.00;100696.63;5050234;28;20037;-73
2023/01/14 08:34:27;;;;;;;52.72;25.92;;;;;;;6.08;100.00;100693.31;5051627;28;20025;-71
2023/01/14 08:36:53;;;;;;;51.78;25.10;;;;;;;6.05;100.00;100688.25;5051198;28;20033;-74
2023/01/14 08:39:18;;;;;;;49.55;24.95;;;;;;;6.08;100.00;100683.22;5051447;28;20040;-74
2023/01/14 08:41:44;;;;;;;53.10;28.75;;;;;;;5.90;100.00;100641.09;5051018;28;20032;-71
2023/01/14 08:44:10;;;;;;;47.92;25.17;;;;;;;5.95;100.00;100623.47;5049921;28;20032;-72
2023/01/14 08:46:37;;;;;;;49.47;25.02;;;;;;;6.24;100.00;100653.78;5049197;28;20089;-70
2023/01/14 08:49:03;;;;;;;53.53;28.60;;;;;;;5.61;100.00;100558.63;5046255;28;20503;-72
2023/01/14 08:51:30;;;;;;;47.72;24.73;;;;;;;5.83;100.00;100620.88;5041546;28;20036;-70
2023/01/14 08:53:55;;;;;;;59.55;32.00;;;;;;;6.04;100.00;100613.41;5050609;28;20029;-71
2023/01/14 08:56:21;;;;;;;49.40;27.25;;;;;;;5.53;100.00;100560.31;5050609;28;20037;-72
2023/01/14 08:58:47;;;;;;;44.92;23.05;;;;;;;6.12;100.00;100670.59;5050839;28;20060;-71
2023/01/14 09:01:13;;;;;;;54.45;27.85;;;;;;;6.07;100.00;100636.09;5050630;28;20407;-70
2023/01/14 09:03:40;;;;;;;47.97;26.05;;;;;;;6.08;100.00;100626.00;5050319;28;20044;-70
2023/01/14 09:06:08;;;;;;;46.95;22.95;;;;;;;6.23;100.00;100669.75;5049743;28;20037;-69
2023/01/14 09:17:12;;;;;;;45.72;23.45;;;;;;;5.53;100.00;100553.59;5039237;28;19940;-69
2023/01/14 09:19:52;;;;;;;;;;;;;;;6.29;100.00;100672.28;5029949;28;20033;-70
2023/01/14 09:22:24;;;;;;;45.08;23.33;;;;;;;6.33;100.00;100663.88;5030074;28;19913;-71
2023/01/14 09:24:50;;;;;;;48.65;25.40;;;;;;;5.94;100.00;100584.75;5030015;28;20060;-71
2023/01/14 09:27:16;;;;;;;44.40;21.52;;;;;;;6.23;100.00;100650.41;5032623;28;20495;-70
2023/01/14 09:29:42;;;;;;;42.50;22.80;;;;;;;5.82;100.00;100571.28;5047639;28;20033;-71
2023/01/14 09:32:09;;;;;;;42.53;21.55;;;;;;;6.02;100.00;100610.03;5050218;28;20357;-68
2023/01/14 09:34:34;;;;;;;43.67;23.90;;;;;;;6.67;100.00;100663.88;5050577;28;20384;-71
2023/01/14 09:37:00;;;;;;;47.20;24.10;;;;;;;6.81;100.00;100663.84;5048969;28;20044;-71
2023/01/14 09:39:26;;;;;;;41.53;23.42;;;;;;;6.62;100.00;100668.06;5049927;28;20029;-73
2023/01/14 09:41:56;;;;;;;44.58;22.98;;;;;;;6.51;100.00;100673.97;5050612;28;20040;-72
2023/01/14 09:44:23;;;;;;;40.28;21.42;;;;;;;6.51;100.00;100666.41;5050066;28;20033;-71
2023/01/14 09:46:50;;;;;;;41.40;23.33;;;;;;;6.63;100.00;100657.13;5049946;28;20025;-71
2023/01/14 09:49:21;;;;;;;44.67;23.65;;;;;;;6.40;100.00;100650.41;5046971;28;20040;-70
2023/01/14 09:52:03;;;;;;;44.70;23.15;;;;;;;6.36;100.00;100626.00;5044465;28;20025;-70
2023/01/14 09:54:35;;;;;;;44.75;24.92;;;;;;;6.47;100.00;100649.56;5044507;28;20037;-73
2023/01/14 09:57:28;;;;;;;49.70;26.40;;;;;;;5.99;100.00;100567.13;5034130;28;20036;-72
2023/01/14 10:00:12;;;;;;;46.70;25.60;;;;;;;6.34;100.00;100617.59;5033943;28;20033;-74
2023/01/14 10:02:50;;;;;;;44.80;24.52;;;;;;;6.64;100.00;100646.16;5031444;28;20033;-73
2023/01/14 10:05:28;;;;;;;43.22;25.30;;;;;;;6.85;100.00;100643.59;5032295;28;20044;-73
2023/01/14 10:07:56;;;;;;;47.78;25.75;;;;;;;6.61;100.00;100640.28;5051041;28;20064;-74
2023/01/14 10:10:29;;;;;;;48.78;26.20;;;;;;;6.18;100.00;100578.06;5049431;28;20037;-73
2023/01/14 10:12:59;;;;;;;49.90;28.13;;;;;;;6.24;100.00;100583.91;5049459;28;20102;-74
2023/01/14 10:15:40;;;;;;;55.50;30.05;;;;;;;6.82;100.00;100643.63;5049562;28;20032;-74
2023/01/14 10:18:16;;;;;;;48.88;26.45;;;;;;;6.75;100.00;100625.94;5050411;28;20510;-72
2023/01/14 10:20:58;;;;;;;43.95;25.23;;;;;;;6.72;100.00;100624.25;5045705;28;20036;-73
2023/01/14 10:23:26;;;;;;;;;;;;;;;6.82;100.00;100620.03;5031568;28;20039;-74
2023/01/14 10:25:53;;;;;;;46.10;25.15;;;;;;;6.83;100.00;100626.78;5048907;28;19924;-73
2023/01/14 10:28:23;;;;;;;47.10;25.77;;;;;;;6.53;100.00;100596.53;5054245;28;20488;-74
2023/01/14 10:30:49;;;;;;;44.80;24.92;;;;;;;6.28;100.00;100539.34;5054057;28;20029;-73
2023/01/14 10:33:17;;;;;;;48.47;27.23;;;;;;;6.77;100.00;100617.50;5053723;28;20056;-71
2023/01/14 10:35:57;;;;;;;43.05;25.25;;;;;;;6.80;100.00;100632.66;5053209;28;20036;-70
2023/01/14 10:38:27;;;;;;;44.70;25.67;;;;;;;6.94;100.00;100602.31;5053108;28;20469;-71
2023/01/14 10:40:58;;;;;;;40.58;24.65;;;;;;;6.71;100.00;100541.75;5052953;28;20029;-71
2023/01/14 10:43:38;;;;;;;42.25;26.10;;;;;;;7.11;100.00;100614.91;5053096;28;20032;-71
2023/01/14 10:46:05;;;;;;;46.95;27.40;;;;;;;7.27;100.00;100602.16;5051642;28;20041;-72
2023/01/14 10:49:11;;;;;;;42.42;24.25;;;;;;;7.01;100.00;100599.75;5053214;28;20487;-70
2023/01/14 10:51:47;;;;;;;36.58;23.10;;;;;;;6.89;100.00;100583.81;5011789;28;20034;-73
2023/01/14 10:54:21;;;;;;;39.90;24.42;;;;;;;7.27;100.00;100601.34;5049093;28;20032;-73
2023/01/14 10:56:56;;;;;;;38.63;23.58;;;;;;;6.82;100.00;100524.00;5053524;28;20037;-73
2023/01/14 10:59:38;;;;;;;33.88;21.70;;;;;;;7.05;100.00;100593.00;5053686;28;20039;-72
2023/01/14 11:02:04;;;;;;;36.55;24.13;;;;;;;6.94;100.00;100534.06;5052779;28;20128;-72
2023/01/14 11:04:33;;;;;;;33.58;22.92;;;;;;;6.45;100.00;100451.75;5053333;28;20247;-72
2023/01/14 11:07:08;;;;;;;32.95;21.85;;;;;;;6.98;100.00;100506.25;5053268;28;20041;-72
2023/01/14 11:09:34;;;;;;;27.08;18.60;;;;;;;6.86;100.00;100549.28;5051881;28;20525;-71
2023/01/14 11:11:59;;;;;;;29.83;20.48;;;;;;;6.85;100.00;100560.22;5053067;28;20060;-70
2023/01/14 11:14:25;;;;;;;35.03;23.70;;;;;;;6.59;100.00;100511.47;5050890;28;20116;-69
2023/01/14 11:16:50;;;;;;;35.67;23.33;;;;;;;6.98;100.00;100566.06;5050759;28;20495;-68
2023/01/14 11:19:15;;;;;;;33.15;21.73;;;;;;;8.08;100.00;100578.00;5052297;28;20033;-73
2023/01/14 11:21:44;;;;;;;37.72;23.38;;;;;;;7.62;100.00;100510.91;5051847;28;20072;-71
2023/01/14 11:24:29;;;;;;;42.78;26.65;;;;;;;7.10;100.00;100578.66;5052044;28;20052;-71
2023/01/14 11:27:17;;;;;;;43.78;26.35;;;;;;;7.07;100.00;100570.25;5051659;28;20094;-72
2023/01/14 11:29:52;;;;;;;47.45;29.77;;;;;;;6.64;100.00;100517.34;4697281;28;10000269;-70
2023/01/14 11:32:24;;;;;;;45.38;29.83;;;;;;;6.93;100.00;100570.31;5030175;28;20033;-70
2023/01/14 11:35:01;;;;;;;38.38;25.85;;;;;;;6.43;100.00;100502.28;5030162;28;20503;-70
2023/01/14 11:37:42;;;;;;;42.85;26.95;;;;;;;6.49;100.00;100502.25;5028537;28;20037;-69
2023/01/14 11:40:24;;;;;;;45.37;27.57;;;;;;;6.66;100.00;100533.34;5027517;28;20021;-70
2023/01/14 11:42:50;;;;;;;43.97;28.80;;;;;;;7.09;100.00;100584.53;5029483;28;20072;-70
2023/01/14 11:45:21;;;;;;;42.60;25.45;;;;;;;6.37;100.00;100483.75;5028342;28;20048;-70